createdAt,value
2022-08-25T00:00:01.907Z,20.10
2022-08-25T00:03:06.835Z,20.10
2022-08-25T00:06:09.731Z,20.00
2022-08-25T00:09:13.063Z,20.10
2022-08-25T00:12:15.005Z,20.10
2022-08-25T00:15:16.948Z,20.20
2022-08-25T00:18:19.862Z,20.20
2022-08-25T00:21:22.207Z,20.20
2022-08-25T00:24:24.524Z,20.30
2022-08-25T00:27:26.656Z,20.40
2022-08-25T00:30:28.593Z,20.30
2022-08-25T00:33:31.345Z,20.40
2022-08-25T00:36:33.896Z,20.40
2022-08-25T00:39:36.263Z,20.30
2022-08-25T00:42:38.551Z,20.40
2022-08-25T00:45:40.706Z,20.20
2022-08-25T00:48:42.677Z,20.10
2022-08-25T00:51:45.595Z,20.10
2022-08-25T00:55:06.226Z,20.00
2022-08-25T00:58:14.726Z,20.00
2022-08-25T01:01:16.754Z,20.10
2022-08-25T01:04:18.715Z,20.10
2022-08-25T01:07:20.722Z,20.10
2022-08-25T01:10:22.815Z,20.10
2022-08-25T01:13:28.241Z,20.10
2022-08-25T01:16:30.148Z,20.10
2022-08-25T01:19:34.769Z,20.20
2022-08-25T01:22:38.178Z,20.10
2022-08-25T01:26:00.865Z,20.10
2022-08-25T01:29:21.427Z,20.20
2022-08-25T01:32:23.900Z,20.20
2022-08-25T01:35:25.857Z,20.20
2022-08-25T01:38:27.908Z,20.20
2022-08-25T01:41:29.743Z,20.30
2022-08-25T01:44:32.074Z,20.40
2022-08-25T01:47:34.055Z,20.50
2022-08-25T01:50:35.928Z,20.50
2022-08-25T01:53:37.962Z,20.50
2022-08-25T01:56:39.861Z,20.50
2022-08-25T01:59:41.868Z,20.50
2022-08-25T02:02:43.982Z,20.50
2022-08-25T02:05:46.168Z,20.40
2022-08-25T02:08:55.200Z,20.40
2022-08-25T02:11:57.167Z,20.30
2022-08-25T02:14:59.656Z,20.20
2022-08-25T02:18:01.661Z,20.20
2022-08-25T02:21:03.735Z,20.20
2022-08-25T02:24:06.446Z,20.20
2022-08-25T02:27:08.588Z,20.10
2022-08-25T02:30:11.204Z,20.10
2022-08-25T02:33:13.173Z,20.10
2022-08-25T02:36:15.557Z,20.20
2022-08-25T02:39:17.394Z,20.20
2022-08-25T02:42:19.337Z,20.20
2022-08-25T02:45:21.321Z,20.20
2022-08-25T02:48:23.494Z,20.20
2022-08-25T02:51:25.647Z,20.10
2022-08-25T02:54:27.886Z,20.10
2022-08-25T02:57:29.858Z,20.10
2022-08-25T03:00:31.768Z,20.10
2022-08-25T03:03:38.823Z,20.20
2022-08-25T03:06:41.355Z,20.10
2022-08-25T03:09:43.426Z,20.10
2022-08-25T03:12:45.550Z,20.10
2022-08-25T03:15:47.372Z,20.10
2022-08-25T03:18:51.328Z,20.20
2022-08-25T03:21:56.323Z,20.20
2022-08-25T03:25:23.458Z,20.20
2022-08-25T03:28:30.102Z,20.30
2022-08-25T03:31:33.127Z,20.30
2022-08-25T03:34:35.072Z,20.30
2022-08-25T03:37:37.220Z,20.30
2022-08-25T03:40:39.104Z,20.30
2022-08-25T03:43:41.420Z,20.20
2022-08-25T03:46:48.342Z,20.20
2022-08-25T03:49:50.341Z,20.20
2022-08-25T03:52:53.817Z,20.20
2022-08-25T03:55:57.418Z,20.20
2022-08-25T03:58:59.387Z,20.10
2022-08-25T04:02:02.935Z,20.10
2022-08-25T04:05:05.230Z,20.20
2022-08-25T04:08:08.139Z,20.20
2022-08-25T04:11:14.580Z,20.10
2022-08-25T04:14:16.800Z,20.10
2022-08-25T04:17:19.045Z,20.10
2022-08-25T04:20:21.137Z,20.00
2022-08-25T04:23:23.072Z,20.00
2022-08-25T04:26:25.924Z,20.10
2022-08-25T04:29:27.914Z,20.10
2022-08-25T04:32:29.801Z,20.00
2022-08-25T04:35:31.787Z,20.10
2022-08-25T04:38:34.346Z,20.00
2022-08-25T04:41:36.298Z,20.00
2022-08-25T04:44:38.181Z,19.90
2022-08-25T04:47:41.035Z,19.90
2022-08-25T04:50:43.653Z,19.80
2022-08-25T04:53:45.609Z,19.90
2022-08-25T04:56:47.877Z,19.90
2022-08-25T04:59:49.811Z,19.90
2022-08-25T05:02:51.592Z,19.90
2022-08-25T05:05:53.544Z,19.90
2022-08-25T05:08:56.201Z,19.80
2022-08-25T05:11:58.108Z,19.80
2022-08-25T05:15:20.026Z,19.60
2022-08-25T05:18:23.227Z,19.60
2022-08-25T05:21:26.648Z,19.50
2022-08-25T05:24:29.638Z,19.50
2022-08-25T05:27:33.716Z,19.50
2022-08-25T05:30:38.492Z,19.50
2022-08-25T05:33:40.796Z,19.50
2022-08-25T05:36:43.632Z,19.60
2022-08-25T05:39:45.698Z,19.50
2022-08-25T05:42:47.584Z,19.50
2022-08-25T05:45:49.557Z,19.50
2022-08-25T05:48:51.747Z,19.50
2022-08-25T05:51:53.691Z,19.40
2022-08-25T05:54:56.049Z,19.50
2022-08-25T05:57:58.023Z,19.40
2022-08-25T06:01:22.743Z,19.40
2022-08-25T06:04:24.827Z,19.40
2022-08-25T06:07:27.101Z,19.40
2022-08-25T06:10:29.197Z,19.50
2022-08-25T06:13:31.022Z,19.50
2022-08-25T06:16:33.179Z,19.50
2022-08-25T06:19:35.504Z,19.50
2022-08-25T06:22:41.628Z,19.50
2022-08-25T06:25:43.512Z,19.60
2022-08-25T06:28:45.509Z,19.60
2022-08-25T06:31:47.587Z,19.50
2022-08-25T06:34:49.814Z,19.50
2022-08-25T06:37:51.721Z,19.50
2022-08-25T06:40:53.689Z,19.50
2022-08-25T06:43:58.001Z,19.50
2022-08-25T06:47:07.712Z,19.50
2022-08-25T06:50:09.891Z,19.50
2022-08-25T06:53:11.962Z,19.50
2022-08-25T06:56:14.227Z,19.60
2022-08-25T06:59:17.528Z,19.70
2022-08-25T07:02:22.281Z,19.60
2022-08-25T07:05:33.686Z,19.60
2022-08-25T07:08:37.161Z,19.60
2022-08-25T07:11:40.640Z,19.70
2022-08-25T07:14:58.045Z,19.70
2022-08-25T07:18:05.036Z,19.70
2022-08-25T07:21:08.972Z,19.70
2022-08-25T07:24:12.248Z,19.70
2022-08-25T07:27:14.192Z,19.70
2022-08-25T07:30:16.460Z,19.60
2022-08-25T07:33:18.386Z,19.70
2022-08-25T07:36:20.678Z,19.60
2022-08-25T07:39:24.614Z,19.70
2022-08-25T07:42:27.650Z,19.80
2022-08-25T07:45:32.501Z,19.70
2022-08-25T07:48:34.523Z,19.70
2022-08-25T07:51:37.427Z,19.70
2022-08-25T07:54:46.149Z,19.70
2022-08-25T07:57:54.008Z,19.60
2022-08-25T08:00:57.869Z,19.60
2022-08-25T08:04:03.447Z,19.60
2022-08-25T08:07:11.957Z,19.70
2022-08-25T08:13:41.245Z,19.80
2022-08-25T08:16:43.702Z,19.80
2022-08-25T08:19:45.689Z,19.80
2022-08-25T08:22:47.590Z,19.80
2022-08-25T08:25:49.896Z,19.90
2022-08-25T08:28:52.318Z,19.90
2022-08-25T08:31:54.272Z,19.90
2022-08-25T08:34:56.169Z,19.90
2022-08-25T08:37:58.073Z,19.90
2022-08-25T08:42:10.849Z,19.90
2022-08-25T08:45:19.920Z,20.00
2022-08-25T08:48:32.440Z,19.90
2022-08-25T08:51:39.314Z,19.90
2022-08-25T08:54:41.370Z,19.90
2022-08-25T08:57:45.139Z,19.90
2022-08-25T09:00:51.984Z,19.90
2022-08-25T09:04:21.304Z,19.90
2022-08-25T09:07:31.921Z,19.90
2022-08-25T09:10:48.112Z,19.90
2022-08-25T09:14:11.303Z,19.90
2022-08-25T09:17:31.363Z,19.90
2022-08-25T09:21:07.782Z,19.90
2022-08-25T09:24:55.741Z,20.00
2022-08-25T09:28:07.344Z,19.90
2022-08-25T09:31:41.035Z,19.90
2022-08-25T09:34:43.037Z,19.90
2022-08-25T09:37:55.382Z,19.90
2022-08-25T09:40:58.743Z,19.90
2022-08-25T09:44:03.110Z,19.80
2022-08-25T09:47:28.028Z,19.70
2022-08-25T09:50:34.788Z,19.70
2022-08-25T09:53:37.487Z,19.70
2022-08-25T09:57:01.131Z,19.70
2022-08-25T10:00:14.697Z,19.70
2022-08-25T10:03:22.636Z,19.80
2022-08-25T10:06:29.289Z,19.90
2022-08-25T10:09:43.021Z,19.90
2022-08-25T10:12:51.485Z,20.00
2022-08-25T10:16:20.652Z,19.90
2022-08-25T10:19:28.852Z,19.90
2022-08-25T10:22:32.630Z,19.80
2022-08-25T10:25:34.513Z,19.90
2022-08-25T10:28:49.433Z,19.90
2022-08-25T10:31:57.949Z,20.00
2022-08-25T10:35:00.132Z,20.20
2022-08-25T10:38:21.706Z,20.30
2022-08-25T10:42:05.459Z,20.40
2022-08-25T10:45:29.426Z,20.40
2022-08-25T10:49:08.352Z,20.50
2022-08-25T10:52:59.664Z,20.60
2022-08-25T10:56:17.900Z,20.50
2022-08-25T10:59:26.600Z,20.60
2022-08-25T11:02:43.666Z,20.60
2022-08-25T11:06:03.520Z,20.60
2022-08-25T11:09:08.117Z,20.60
2022-08-25T11:12:15.171Z,20.70
2022-08-25T11:15:24.198Z,20.70
2022-08-25T11:18:26.850Z,20.80
2022-08-25T11:21:49.960Z,20.70
2022-08-25T11:24:55.193Z,20.70
2022-08-25T11:28:18.452Z,20.70
2022-08-25T11:31:21.714Z,20.90
2022-08-25T11:34:25.385Z,21.10
2022-08-25T11:37:30.902Z,21.20
2022-08-25T11:40:38.796Z,21.10
2022-08-25T11:44:10.426Z,21.10
2022-08-25T11:47:21.722Z,21.20
2022-08-25T11:50:30.226Z,21.30
2022-08-25T11:53:42.527Z,21.50
2022-08-25T11:56:50.757Z,21.80
2022-08-25T11:59:53.149Z,21.90
2022-08-25T12:03:00.848Z,22.30
2022-08-25T12:06:18.673Z,22.40
2022-08-25T12:09:21.354Z,22.40
2022-08-25T12:12:42.686Z,22.50
2022-08-25T12:15:47.645Z,22.70
2022-08-25T12:18:51.584Z,23.00
2022-08-25T12:21:55.359Z,23.30
2022-08-25T12:25:08.770Z,23.40
2022-08-25T12:28:34.883Z,23.30
2022-08-25T12:31:51.125Z,23.00
2022-08-25T12:35:13.862Z,22.70
2022-08-25T12:38:17.449Z,22.50
2022-08-25T12:41:27.416Z,22.50
2022-08-25T12:44:41.991Z,22.50
2022-08-25T12:47:47.503Z,22.60
2022-08-25T12:50:50.423Z,22.60
2022-08-25T12:53:54.552Z,22.70
2022-08-25T12:57:29.533Z,23.10
2022-08-25T13:01:10.356Z,23.50
2022-08-25T13:04:25.411Z,23.90
2022-08-25T13:07:58.520Z,24.10
2022-08-25T13:11:09.512Z,23.90
2022-08-25T13:14:30.210Z,24.10
2022-08-25T13:17:34.185Z,24.10
2022-08-25T13:20:36.168Z,24.10
2022-08-25T13:23:38.778Z,23.90
2022-08-25T13:26:48.393Z,23.60
2022-08-25T13:29:53.093Z,23.30
2022-08-25T13:32:55.276Z,23.40
2022-08-25T13:36:16.602Z,23.80
2022-08-25T13:39:38.995Z,23.80
2022-08-25T13:42:53.020Z,24.00
2022-08-25T13:45:57.751Z,24.40
2022-08-25T13:49:06.359Z,24.80
2022-08-25T13:52:08.769Z,25.20
2022-08-25T13:55:10.692Z,25.50
2022-08-25T13:58:17.591Z,25.90
2022-08-25T14:01:47.516Z,26.10
2022-08-25T14:04:52.843Z,26.20
2022-08-25T14:08:03.786Z,26.10
2022-08-25T14:11:47.008Z,26.10
2022-08-25T14:14:59.041Z,26.20
2022-08-25T14:18:26.752Z,26.20
2022-08-25T14:21:30.633Z,25.90
2022-08-25T14:24:38.774Z,25.50
2022-08-25T14:28:03.482Z,25.10
2022-08-25T14:31:14.493Z,24.90
2022-08-25T14:34:21.625Z,24.90
2022-08-25T14:37:25.293Z,24.70
2022-08-25T14:40:34.231Z,24.50
2022-08-25T14:43:37.164Z,24.50
2022-08-25T14:46:50.648Z,24.50
2022-08-25T14:49:52.646Z,24.60
2022-08-25T14:52:54.551Z,24.40
2022-08-25T14:56:08.360Z,24.50
2022-08-25T14:59:12.265Z,24.40
2022-08-25T15:02:20.086Z,24.30
2022-08-25T15:05:27.069Z,24.20
2022-08-25T15:08:49.000Z,24.40
2022-08-25T15:11:52.622Z,24.50
2022-08-25T15:14:56.560Z,24.50
2022-08-25T15:18:01.163Z,24.60
2022-08-25T15:21:03.396Z,24.90
2022-08-25T15:24:06.092Z,25.00
2022-08-25T15:27:10.213Z,24.90
2022-08-25T15:30:13.008Z,25.20
2022-08-25T15:33:15.089Z,25.40
2022-08-25T15:36:24.601Z,25.20
2022-08-25T15:39:27.643Z,25.00
2022-08-25T15:42:29.510Z,24.80
2022-08-25T15:45:32.112Z,24.70
2022-08-25T15:48:35.909Z,25.10
2022-08-25T15:51:38.353Z,25.60
2022-08-25T15:54:40.582Z,25.70
2022-08-25T15:57:43.903Z,25.50
2022-08-25T16:00:56.163Z,25.00
2022-08-25T16:03:58.773Z,24.70
2022-08-25T16:07:00.887Z,24.20
2022-08-25T16:10:03.628Z,24.00
2022-08-25T16:13:05.864Z,23.70
2022-08-25T16:16:10.599Z,23.50
2022-08-25T16:19:15.015Z,23.10
2022-08-25T16:22:17.514Z,22.90
2022-08-25T16:25:19.667Z,22.80
2022-08-25T16:28:24.430Z,22.70
2022-08-25T16:31:26.920Z,22.60
2022-08-25T16:34:30.831Z,22.40
2022-08-25T16:37:34.649Z,22.30
2022-08-25T16:40:42.300Z,22.20
2022-08-25T16:43:45.404Z,22.10
2022-08-25T16:46:47.372Z,22.10
2022-08-25T16:49:49.341Z,22.00
2022-08-25T16:53:09.736Z,22.00
2022-08-25T16:56:11.816Z,21.90
2022-08-25T16:59:14.061Z,21.70
2022-08-25T17:02:16.586Z,21.40
2022-08-25T17:05:20.719Z,21.30
2022-08-25T17:08:30.398Z,21.20
2022-08-25T17:11:39.825Z,21.20
2022-08-25T17:14:41.778Z,21.20
2022-08-25T17:17:44.467Z,21.10
2022-08-25T17:20:48.484Z,21.00
2022-08-25T17:23:54.335Z,21.00
2022-08-25T17:26:56.391Z,20.90
2022-08-25T17:29:58.293Z,20.80
2022-08-25T17:33:00.689Z,20.80
2022-08-25T17:36:02.776Z,20.80
2022-08-25T17:39:04.847Z,20.80
2022-08-25T17:42:07.193Z,20.70
2022-08-25T17:45:09.124Z,20.80
2022-08-25T17:48:11.045Z,20.70
2022-08-25T17:51:12.972Z,20.60
2022-08-25T17:54:17.918Z,20.60
2022-08-25T17:57:19.906Z,20.60
2022-08-25T18:00:23.355Z,20.60
2022-08-25T18:03:26.325Z,20.60
2022-08-25T18:06:29.634Z,20.50
2022-08-25T18:09:32.240Z,20.40
2022-08-25T18:12:34.747Z,20.30
2022-08-25T18:15:36.689Z,20.20
2022-08-25T18:18:38.672Z,20.10
2022-08-25T18:21:41.397Z,20.00
2022-08-25T18:24:45.739Z,19.90
2022-08-25T18:27:47.673Z,19.90
2022-08-25T18:30:49.573Z,19.80
2022-08-25T18:33:52.267Z,19.70
2022-08-25T18:36:54.260Z,19.70
2022-08-25T18:40:15.009Z,19.70
2022-08-25T18:43:17.671Z,19.70
2022-08-25T18:46:22.535Z,19.60
2022-08-25T18:49:26.697Z,19.60
2022-08-25T18:52:30.530Z,19.60
2022-08-25T18:55:33.086Z,19.60
2022-08-25T18:58:34.984Z,19.50
2022-08-25T19:01:38.136Z,19.50
2022-08-25T19:04:40.250Z,19.40
2022-08-25T19:07:44.489Z,19.40
2022-08-25T19:10:51.210Z,19.40
2022-08-25T19:13:53.233Z,19.30
2022-08-25T19:16:57.854Z,19.30
2022-08-25T19:20:00.199Z,19.20
2022-08-25T19:23:03.646Z,19.10
2022-08-25T19:26:16.962Z,19.10
2022-08-25T19:29:19.821Z,19.10
2022-08-25T19:32:21.628Z,19.10
2022-08-25T19:35:39.272Z,19.00
2022-08-25T19:38:41.832Z,19.00
2022-08-25T19:41:44.096Z,18.90
2022-08-25T19:44:46.305Z,18.90
2022-08-25T19:47:48.307Z,18.90
2022-08-25T19:50:50.278Z,19.00
2022-08-25T19:54:01.568Z,18.90
2022-08-25T19:57:07.819Z,18.90
2022-08-25T20:00:16.134Z,18.80
2022-08-25T20:03:20.556Z,18.80
2022-08-25T20:06:22.854Z,18.80
2022-08-25T20:09:38.614Z,18.80
2022-08-25T20:12:44.686Z,18.80
2022-08-25T20:15:47.410Z,18.70
2022-08-25T20:18:49.390Z,18.70
2022-08-25T20:21:51.275Z,18.60
2022-08-25T20:24:59.984Z,18.50
2022-08-25T20:28:03.330Z,18.60
2022-08-25T20:31:05.321Z,18.50
2022-08-25T20:34:08.800Z,18.60
2022-08-25T20:37:10.942Z,18.50
2022-08-25T20:40:14.142Z,18.40
2022-08-25T20:43:16.330Z,18.40
2022-08-25T20:46:19.202Z,18.40
2022-08-25T20:49:21.305Z,18.40
2022-08-25T20:52:23.204Z,18.40
2022-08-25T20:55:27.755Z,18.40
2022-08-25T20:58:30.424Z,18.40
2022-08-25T21:01:39.752Z,18.40
2022-08-25T21:04:50.150Z,18.40
2022-08-25T21:07:52.506Z,18.40
2022-08-25T21:10:54.424Z,18.40
2022-08-25T21:13:58.504Z,18.40
2022-08-25T21:17:00.778Z,18.40
2022-08-25T21:20:05.798Z,18.40
2022-08-25T21:23:08.793Z,18.30
2022-08-25T21:26:18.760Z,18.30
2022-08-25T21:29:22.161Z,18.20
2022-08-25T21:32:24.517Z,18.10
2022-08-25T21:35:29.575Z,18.00
2022-08-25T21:38:31.615Z,18.00
2022-08-25T21:41:34.672Z,18.00
2022-08-25T21:44:36.603Z,18.00
2022-08-25T21:47:42.416Z,18.00
2022-08-25T21:50:44.480Z,17.90
2022-08-25T21:53:47.238Z,17.80
2022-08-25T21:56:51.708Z,17.70
2022-08-25T21:59:53.673Z,17.60
2022-08-25T22:03:00.032Z,17.50
2022-08-25T22:06:06.692Z,17.40
2022-08-25T22:09:09.065Z,17.40
2022-08-25T22:12:10.976Z,17.20
2022-08-25T22:15:14.604Z,17.20
2022-08-25T22:18:16.528Z,17.10
2022-08-25T22:21:19.792Z,17.00
2022-08-25T22:24:22.314Z,17.00
2022-08-25T22:27:25.143Z,16.90
2022-08-25T22:30:29.394Z,16.80
2022-08-25T22:33:31.679Z,16.80
2022-08-25T22:36:37.245Z,16.80
2022-08-25T22:39:40.289Z,16.80
2022-08-25T22:42:47.399Z,16.80
2022-08-25T22:45:50.237Z,16.80
2022-08-25T22:48:55.852Z,16.80
2022-08-25T22:51:57.792Z,16.70
2022-08-25T22:54:59.947Z,16.70
2022-08-25T22:58:01.916Z,16.60
2022-08-25T23:01:04.570Z,16.50
2022-08-25T23:04:06.974Z,16.40
2022-08-25T23:07:09.371Z,16.30
2022-08-25T23:10:12.591Z,16.30
2022-08-25T23:13:33.826Z,16.20
2022-08-25T23:16:37.385Z,16.20
2022-08-25T23:19:39.354Z,16.20
2022-08-25T23:22:41.289Z,16.20
2022-08-25T23:25:43.558Z,16.10
2022-08-25T23:28:45.444Z,16.10
2022-08-25T23:31:47.937Z,16.00
2022-08-25T23:34:49.945Z,16.00
2022-08-25T23:37:51.877Z,15.90
2022-08-25T23:40:53.929Z,15.90
2022-08-25T23:43:56.385Z,15.90
2022-08-25T23:46:58.303Z,15.80
2022-08-25T23:50:00.244Z,15.80
2022-08-25T23:53:02.512Z,15.80
2022-08-25T23:56:05.595Z,15.80
2022-08-25T23:59:09.373Z,15.80
